createdAt,value
2022-11-05T00:01:13.590Z,12.21
2022-11-05T00:03:59.830Z,12.47
2022-11-05T00:06:46.014Z,12.47
2022-11-05T00:09:32.891Z,12.44
2022-11-05T00:12:31.869Z,12.51
2022-11-05T00:15:18.359Z,12.33
2022-11-05T00:17:46.270Z,12.19
2022-11-05T00:20:14.291Z,12.32
2022-11-05T00:23:00.705Z,12.06
2022-11-05T00:25:30.359Z,12.25
2022-11-05T00:28:02.210Z,12.21
2022-11-05T00:30:30.496Z,12.31
2022-11-05T00:33:02.777Z,12.21
2022-11-05T00:35:30.664Z,11.96
2022-11-05T00:37:58.484Z,12.11
2022-11-05T00:40:26.531Z,12.07
2022-11-05T00:43:13.262Z,12.22
2022-11-05T00:45:41.299Z,12.19
2022-11-05T00:48:27.584Z,12.02
2022-11-05T00:50:55.470Z,11.93
2022-11-05T00:53:23.854Z,11.92
2022-11-05T00:55:51.783Z,12.05
2022-11-05T00:58:21.250Z,12.23
2022-11-05T01:00:51.086Z,12.12
2022-11-05T01:03:22.075Z,12.13
2022-11-05T01:05:52.763Z,11.98
2022-11-05T01:08:22.341Z,11.85
2022-11-05T01:10:55.768Z,11.82
2022-11-05T01:13:28.662Z,11.94
2022-11-05T01:15:57.661Z,11.94
2022-11-05T01:18:25.774Z,11.94
2022-11-05T01:20:53.757Z,12.06
2022-11-05T01:23:22.350Z,12.22
2022-11-05T01:25:50.429Z,11.95
2022-11-05T01:28:18.540Z,11.88
2022-11-05T01:30:46.793Z,11.68
2022-11-05T01:33:14.840Z,11.79
2022-11-05T01:35:42.903Z,11.82
2022-11-05T01:38:10.820Z,11.76
2022-11-05T01:40:43.040Z,11.77
2022-11-05T01:43:19.499Z,11.89
2022-11-05T01:45:51.370Z,12.08
2022-11-05T01:48:30.705Z,11.73
2022-11-05T01:51:03.318Z,11.78
2022-11-05T01:53:48.663Z,11.71
2022-11-05T01:56:19.034Z,11.76
2022-11-05T01:58:52.357Z,12.06
2022-11-05T02:01:20.360Z,11.79
2022-11-05T02:03:50.922Z,11.74
2022-11-05T02:06:19.805Z,11.59
2022-11-05T02:09:02.936Z,11.74
2022-11-05T02:11:31.078Z,11.88
2022-11-05T02:13:59.643Z,11.57
2022-11-05T02:16:36.882Z,11.63
2022-11-05T02:19:32.175Z,11.49
2022-11-05T02:22:29.120Z,11.54
2022-11-05T02:24:57.104Z,11.37
2022-11-05T02:27:46.465Z,11.33
2022-11-05T02:30:32.140Z,11.45
2022-11-05T02:33:36.366Z,11.55
2022-11-05T02:36:19.159Z,11.59
2022-11-05T02:39:07.803Z,11.48
2022-11-05T02:42:09.911Z,11.63
2022-11-05T02:45:05.006Z,11.76
2022-11-05T02:48:01.563Z,11.67
2022-11-05T02:50:29.503Z,11.66
2022-11-05T02:53:03.514Z,11.69
2022-11-05T02:55:40.011Z,11.93
2022-11-05T02:58:08.227Z,11.83
2022-11-05T03:00:40.138Z,11.86
2022-11-05T03:03:26.277Z,11.85
2022-11-05T03:06:24.727Z,11.83
2022-11-05T03:09:10.488Z,11.82
2022-11-05T03:11:58.486Z,12.06
2022-11-05T03:14:37.291Z,11.99
2022-11-05T03:17:10.901Z,11.80
2022-11-05T03:20:26.068Z,11.83
2022-11-05T03:23:05.327Z,11.82
2022-11-05T03:25:39.457Z,11.83
2022-11-05T03:28:10.199Z,11.78
2022-11-05T03:30:41.155Z,11.92
2022-11-05T03:33:17.962Z,11.76
2022-11-05T03:35:50.762Z,11.80
2022-11-05T03:38:27.609Z,11.84
2022-11-05T03:40:58.862Z,11.84
2022-11-05T03:43:32.355Z,11.95
2022-11-05T03:46:06.717Z,11.79
2022-11-05T03:48:41.351Z,11.88
2022-11-05T03:51:20.817Z,11.81
2022-11-05T03:53:53.026Z,11.78
2022-11-05T03:56:34.429Z,11.83
2022-11-05T03:59:05.111Z,11.86
2022-11-05T04:01:33.780Z,11.63
2022-11-05T04:04:01.900Z,11.68
2022-11-05T04:06:48.414Z,11.75
2022-11-05T04:09:34.504Z,11.80
2022-11-05T04:12:20.631Z,11.69
2022-11-05T04:14:48.417Z,11.79
2022-11-05T04:17:16.219Z,11.72
2022-11-05T04:20:03.982Z,11.80
2022-11-05T04:22:52.923Z,11.74
2022-11-05T04:25:21.954Z,11.73
2022-11-05T04:27:50.358Z,11.81
2022-11-05T04:30:19.162Z,11.86
2022-11-05T04:32:55.867Z,11.85
2022-11-05T04:35:24.508Z,11.87
2022-11-05T04:37:52.503Z,11.95
2022-11-05T04:40:20.617Z,11.95
2022-11-05T04:42:48.835Z,12.10
2022-11-05T04:45:17.123Z,11.97
2022-11-05T04:47:45.149Z,11.89
2022-11-05T04:50:13.535Z,11.97
2022-11-05T04:52:41.556Z,11.92
2022-11-05T04:55:09.619Z,11.86
2022-11-05T04:57:37.979Z,11.95
2022-11-05T05:00:07.648Z,11.89
2022-11-05T05:02:38.738Z,11.91
2022-11-05T05:05:06.994Z,11.94
2022-11-05T05:07:35.537Z,11.95
2022-11-05T05:10:06.115Z,11.94
2022-11-05T05:12:34.916Z,12.02
2022-11-05T05:15:02.735Z,12.03
2022-11-05T05:17:30.773Z,12.11
2022-11-05T05:20:16.977Z,12.19
2022-11-05T05:22:44.600Z,12.06
2022-11-05T05:25:12.629Z,12.10
2022-11-05T05:27:40.750Z,12.31
2022-11-05T05:30:09.555Z,12.26
2022-11-05T05:32:37.671Z,12.08
2022-11-05T05:35:06.421Z,12.02
2022-11-05T05:37:34.264Z,12.13
2022-11-05T05:40:02.180Z,12.04
2022-11-05T05:42:30.175Z,11.96
2022-11-05T05:44:58.099Z,12.06
2022-11-05T05:47:26.043Z,12.17
2022-11-05T05:49:54.061Z,12.02
2022-11-05T05:52:22.087Z,11.99
2022-11-05T05:54:49.825Z,12.10
2022-11-05T05:57:17.764Z,12.21
2022-11-05T05:59:46.069Z,12.02
2022-11-05T06:02:14.265Z,11.91
2022-11-05T06:04:42.269Z,11.97
2022-11-05T06:07:09.949Z,11.93
2022-11-05T06:09:38.094Z,12.07
2022-11-05T06:12:06.088Z,12.08
2022-11-05T06:14:33.869Z,12.15
2022-11-05T06:17:01.940Z,12.29
2022-11-05T06:19:29.851Z,12.18
2022-11-05T06:21:57.627Z,11.86
2022-11-05T06:24:25.681Z,11.86
2022-11-05T06:26:53.517Z,11.95
2022-11-05T06:29:21.647Z,11.93
2022-11-05T06:31:49.381Z,11.90
2022-11-05T06:34:16.939Z,11.76
2022-11-05T06:36:44.754Z,11.86
2022-11-05T06:39:13.366Z,12.01
2022-11-05T06:44:29.583Z,11.92
2022-11-05T06:46:57.877Z,12.19
2022-11-05T06:49:25.965Z,12.37
2022-11-05T06:51:54.022Z,12.51
2022-11-05T06:54:22.026Z,12.60
2022-11-05T06:56:50.343Z,12.43
2022-11-05T06:59:18.103Z,12.49
2022-11-05T07:01:46.153Z,12.36
2022-11-05T07:04:17.084Z,12.39
2022-11-05T07:06:45.002Z,12.60
2022-11-05T07:09:13.150Z,12.47
2022-11-05T07:11:41.054Z,12.52
2022-11-05T07:14:08.869Z,12.56
2022-11-05T07:16:36.712Z,12.69
2022-11-05T07:19:04.913Z,12.87
2022-11-05T07:21:35.463Z,13.06
2022-11-05T07:24:03.303Z,13.21
2022-11-05T07:26:34.542Z,13.41
2022-11-05T07:29:02.707Z,13.46
2022-11-05T07:31:30.928Z,13.48
2022-11-05T07:33:59.377Z,13.82
2022-11-05T07:36:27.553Z,13.99
2022-11-05T07:39:00.180Z,13.84
2022-11-05T07:41:29.653Z,14.19
2022-11-05T07:43:57.428Z,14.43
2022-11-05T07:46:25.478Z,14.48
2022-11-05T07:48:53.410Z,14.44
2022-11-05T07:51:21.592Z,14.41
2022-11-05T07:53:49.940Z,14.51
2022-11-05T07:56:17.939Z,14.67
2022-11-05T07:58:46.066Z,14.74
2022-11-05T08:01:14.274Z,14.77
2022-11-05T08:03:42.387Z,14.71
2022-11-05T08:06:10.703Z,14.87
2022-11-05T08:08:38.769Z,15.11
2022-11-05T08:11:11.050Z,14.84
2022-11-05T08:13:39.331Z,14.75
2022-11-05T08:16:08.310Z,14.62
2022-11-05T08:18:36.190Z,14.73
2022-11-05T08:21:05.929Z,14.84
2022-11-05T08:23:33.963Z,15.06
2022-11-05T08:26:04.155Z,15.23
2022-11-05T08:28:32.433Z,15.45
2022-11-05T08:31:00.164Z,15.62
2022-11-05T08:33:29.802Z,15.80
2022-11-05T08:36:02.167Z,15.87
2022-11-05T08:38:30.387Z,15.91
2022-11-05T08:40:58.973Z,15.84
2022-11-05T08:43:27.079Z,15.84
2022-11-05T08:45:55.375Z,15.80
2022-11-05T08:48:23.381Z,15.85
2022-11-05T08:50:51.459Z,15.98
2022-11-05T08:53:19.610Z,15.97
2022-11-05T08:55:50.069Z,16.04
2022-11-05T08:58:18.238Z,16.01
2022-11-05T09:00:49.236Z,16.18
2022-11-05T09:03:18.166Z,16.27
2022-11-05T09:05:46.704Z,16.47
2022-11-05T09:08:17.526Z,16.28
2022-11-05T09:10:46.780Z,16.18
2022-11-05T09:13:18.823Z,16.17
2022-11-05T09:15:49.311Z,16.11
2022-11-05T09:18:18.688Z,16.00
2022-11-05T09:20:47.212Z,15.90
2022-11-05T09:23:16.137Z,15.99
2022-11-05T09:25:44.618Z,16.12
2022-11-05T09:28:16.815Z,16.02
2022-11-05T09:30:48.130Z,15.95
2022-11-05T09:33:24.447Z,16.13
2022-11-05T09:35:53.500Z,16.23
2022-11-05T09:38:22.100Z,16.29
2022-11-05T09:41:03.304Z,16.41
2022-11-05T09:43:40.787Z,16.40
2022-11-05T09:46:17.633Z,16.31
2022-11-05T09:48:49.805Z,16.40
2022-11-05T09:51:23.750Z,16.49
2022-11-05T09:53:53.986Z,16.54
2022-11-05T09:56:28.063Z,16.33
2022-11-05T09:59:01.029Z,16.38
2022-11-05T10:01:35.869Z,16.53
2022-11-05T10:04:13.299Z,16.61
2022-11-05T10:06:48.684Z,16.63
2022-11-05T10:09:36.174Z,16.61
2022-11-05T10:12:14.927Z,16.65
2022-11-05T10:15:04.310Z,16.72
2022-11-05T10:17:39.231Z,16.65
2022-11-05T10:20:32.796Z,16.64
2022-11-05T10:23:13.911Z,16.73
2022-11-05T10:25:46.773Z,16.74
2022-11-05T10:28:19.238Z,16.83
2022-11-05T10:30:50.542Z,16.81
2022-11-05T10:33:35.800Z,16.96
2022-11-05T10:36:07.308Z,16.94
2022-11-05T10:38:35.266Z,16.98
2022-11-05T10:41:21.602Z,17.14
2022-11-05T10:43:58.606Z,17.28
2022-11-05T10:46:41.230Z,17.35
2022-11-05T10:49:27.393Z,17.45
2022-11-05T10:51:59.041Z,17.49
2022-11-05T10:54:33.685Z,17.33
2022-11-05T10:57:39.190Z,17.46
2022-11-05T11:00:16.321Z,17.59
2022-11-05T11:02:59.514Z,17.81
2022-11-05T11:05:36.827Z,18.06
2022-11-05T11:08:13.506Z,18.21
2022-11-05T11:10:48.891Z,18.34
2022-11-05T11:13:28.886Z,18.36
2022-11-05T11:16:19.864Z,18.48
2022-11-05T11:18:56.506Z,18.44
2022-11-05T11:21:27.471Z,18.58
2022-11-05T11:24:09.461Z,18.48
2022-11-05T11:26:40.623Z,18.62
2022-11-05T11:29:19.840Z,18.78
2022-11-05T11:31:47.708Z,18.66
2022-11-05T11:34:31.598Z,18.82
2022-11-05T11:37:06.783Z,18.89
2022-11-05T11:39:35.085Z,18.84
2022-11-05T11:42:11.661Z,18.86
2022-11-05T11:44:46.448Z,19.04
2022-11-05T11:47:17.413Z,19.04
2022-11-05T11:49:47.392Z,19.09
2022-11-05T11:52:35.965Z,19.17
2022-11-05T11:55:09.492Z,19.15
2022-11-05T11:58:05.404Z,19.26
2022-11-05T12:00:43.050Z,19.22
2022-11-05T12:03:23.095Z,19.36
2022-11-05T12:06:03.797Z,19.35
2022-11-05T12:08:47.652Z,19.48
2022-11-05T12:11:34.249Z,19.55
2022-11-05T12:14:06.570Z,19.61
2022-11-05T12:16:49.797Z,19.30
2022-11-05T12:19:35.606Z,19.52
2022-11-05T12:22:18.341Z,19.64
2022-11-05T12:25:05.946Z,19.82
2022-11-05T12:27:47.331Z,19.74
2022-11-05T12:30:20.205Z,19.75
2022-11-05T12:32:55.069Z,19.86
2022-11-05T12:35:57.898Z,19.66
2022-11-05T12:38:53.245Z,19.53
2022-11-05T12:41:29.790Z,19.55
2022-11-05T12:44:10.422Z,19.45
2022-11-05T12:46:38.302Z,19.35
2022-11-05T12:49:36.467Z,19.24
2022-11-05T12:52:19.055Z,19.35
2022-11-05T12:55:05.221Z,19.18
2022-11-05T12:57:36.485Z,19.06
2022-11-05T13:00:16.314Z,19.18
2022-11-05T13:02:49.735Z,19.15
2022-11-05T13:05:25.113Z,19.29
2022-11-05T13:08:01.239Z,19.39
2022-11-05T13:10:35.386Z,19.41
2022-11-05T13:13:32.607Z,19.33
2022-11-05T13:16:19.969Z,19.29
2022-11-05T13:18:52.405Z,19.15
2022-11-05T13:21:24.291Z,19.30
2022-11-05T13:23:57.476Z,19.27
2022-11-05T13:26:31.527Z,19.24
2022-11-05T13:29:41.249Z,19.29
2022-11-05T13:32:35.315Z,19.17
2022-11-05T13:35:05.519Z,19.28
2022-11-05T13:37:59.436Z,19.22
2022-11-05T13:40:50.265Z,19.16
2022-11-05T13:43:37.053Z,19.12
2022-11-05T13:46:33.889Z,19.04
2022-11-05T13:49:25.635Z,18.97
2022-11-05T13:52:36.693Z,19.04
2022-11-05T13:55:41.830Z,18.95
2022-11-05T13:58:26.327Z,19.01
2022-11-05T14:01:06.054Z,18.82
2022-11-05T14:03:33.923Z,18.88
2022-11-05T14:06:07.483Z,18.98
2022-11-05T14:08:43.716Z,18.87
2022-11-05T14:11:33.352Z,18.88
2022-11-05T14:14:20.018Z,18.85
2022-11-05T14:17:14.122Z,18.90
2022-11-05T14:20:05.850Z,18.87
2022-11-05T14:22:33.722Z,18.73
2022-11-05T14:25:22.467Z,18.87
2022-11-05T14:27:52.348Z,18.74
2022-11-05T14:30:46.370Z,18.52
2022-11-05T14:33:24.645Z,18.61
2022-11-05T14:35:54.080Z,18.61
2022-11-05T14:38:26.140Z,18.54
2022-11-05T14:41:02.508Z,18.60
2022-11-05T14:43:34.026Z,18.53
2022-11-05T14:46:09.194Z,18.59
2022-11-05T14:48:42.217Z,18.46
2022-11-05T14:51:35.871Z,18.44
2022-11-05T14:54:21.766Z,18.39
2022-11-05T14:56:57.140Z,18.29
2022-11-05T14:59:24.832Z,18.25
2022-11-05T15:01:58.991Z,18.19
2022-11-05T15:04:27.844Z,18.22
2022-11-05T15:07:04.502Z,18.19
2022-11-05T15:09:53.569Z,18.11
2022-11-05T15:12:39.737Z,17.96
2022-11-05T15:15:22.327Z,18.08
2022-11-05T15:18:26.564Z,17.97
2022-11-05T15:20:57.730Z,17.94
2022-11-05T15:23:30.205Z,17.83
2022-11-05T15:26:31.659Z,17.62
2022-11-05T15:29:00.812Z,17.63
2022-11-05T15:31:35.511Z,17.63
2022-11-05T15:34:15.527Z,17.58
2022-11-05T15:37:11.797Z,17.62
2022-11-05T15:39:45.263Z,17.57
2022-11-05T15:42:14.289Z,17.51
2022-11-05T15:44:47.823Z,17.36
2022-11-05T15:47:24.194Z,17.20
2022-11-05T15:49:57.114Z,17.08
2022-11-05T15:52:31.757Z,17.02
2022-11-05T15:55:14.705Z,16.96
2022-11-05T15:57:50.429Z,16.83
2022-11-05T16:00:24.645Z,16.92
2022-11-05T16:03:15.307Z,16.90
2022-11-05T16:05:46.484Z,17.07
2022-11-05T16:08:28.653Z,16.93
2022-11-05T16:11:00.770Z,16.78
2022-11-05T16:13:38.540Z,16.87
2022-11-05T16:16:27.759Z,16.82
2022-11-05T16:18:55.405Z,16.84
2022-11-05T16:21:23.731Z,16.83
2022-11-05T16:23:57.773Z,16.78
2022-11-05T16:27:01.720Z,16.33
2022-11-05T16:29:33.671Z,16.18
2022-11-05T16:32:04.784Z,16.18
2022-11-05T16:34:45.575Z,16.20
2022-11-05T16:37:17.169Z,16.14
2022-11-05T16:39:45.102Z,16.12
2022-11-05T16:42:24.684Z,16.06
2022-11-05T16:44:54.960Z,16.12
2022-11-05T16:47:23.092Z,16.31
2022-11-05T16:49:51.262Z,16.01
2022-11-05T16:52:22.415Z,15.87
2022-11-05T16:54:50.363Z,16.11
2022-11-05T16:57:29.463Z,16.09
2022-11-05T17:00:04.606Z,15.90
2022-11-05T17:02:33.439Z,15.73
2022-11-05T17:05:01.808Z,15.71
2022-11-05T17:07:29.781Z,15.63
2022-11-05T17:09:58.033Z,15.53
2022-11-05T17:12:26.129Z,15.49
2022-11-05T17:14:54.266Z,15.44
2022-11-05T17:17:22.184Z,15.42
2022-11-05T17:19:50.471Z,15.46
2022-11-05T17:22:18.252Z,15.40
2022-11-05T17:24:46.162Z,15.43
2022-11-05T17:27:14.362Z,15.44
2022-11-05T17:29:42.337Z,15.40
2022-11-05T17:32:10.379Z,15.41
2022-11-05T17:34:38.170Z,15.40
2022-11-05T17:37:05.821Z,15.58
2022-11-05T17:39:33.884Z,15.65
2022-11-05T17:42:01.652Z,15.45
2022-11-05T17:44:29.829Z,15.31
2022-11-05T17:46:57.785Z,15.34
2022-11-05T17:49:25.611Z,15.17
2022-11-05T17:51:53.726Z,15.37
2022-11-05T17:54:21.892Z,15.27
2022-11-05T17:56:52.807Z,15.23
2022-11-05T17:59:20.724Z,14.98
2022-11-05T18:01:48.964Z,15.30
2022-11-05T18:04:16.870Z,15.04
2022-11-05T18:06:44.810Z,14.97
2022-11-05T18:09:13.496Z,15.14
2022-11-05T18:11:41.974Z,15.01
2022-11-05T18:14:10.289Z,15.05
2022-11-05T18:16:38.568Z,14.97
2022-11-05T18:19:06.632Z,14.67
2022-11-05T18:21:34.584Z,14.68
2022-11-05T18:24:04.162Z,14.92
2022-11-05T18:26:32.473Z,14.77
2022-11-05T18:29:05.470Z,15.00
2022-11-05T18:31:33.540Z,14.65
2022-11-05T18:34:01.740Z,14.75
2022-11-05T18:36:31.578Z,14.86
2022-11-05T18:39:01.718Z,14.69
2022-11-05T18:41:30.209Z,14.77
2022-11-05T18:44:01.739Z,14.85
2022-11-05T18:46:56.431Z,14.87
2022-11-05T18:49:18.461Z,14.56
2022-11-05T18:51:46.204Z,14.56
2022-11-05T18:54:14.654Z,14.66
2022-11-05T18:56:45.610Z,14.57
2022-11-05T18:59:36.018Z,14.59
2022-11-05T19:02:04.209Z,14.38
2022-11-05T19:04:32.198Z,14.17
2022-11-05T19:07:04.406Z,14.08
2022-11-05T19:09:37.503Z,13.94
2022-11-05T19:12:07.171Z,14.04
2022-11-05T19:14:35.724Z,14.05
2022-11-05T19:17:04.435Z,14.15
2022-11-05T19:19:32.510Z,14.06
2022-11-05T19:22:00.174Z,14.16
2022-11-05T19:24:28.138Z,14.09
2022-11-05T19:26:56.089Z,14.30
2022-11-05T19:29:23.918Z,14.08
2022-11-05T19:31:51.888Z,14.03
2022-11-05T19:34:20.636Z,13.82
2022-11-05T19:36:48.513Z,13.91
2022-11-05T19:39:16.354Z,13.77
2022-11-05T19:41:44.132Z,13.69
2022-11-05T19:44:11.797Z,13.78
2022-11-05T19:46:39.542Z,13.65
2022-11-05T19:49:07.294Z,13.96
2022-11-05T19:51:35.194Z,14.25
2022-11-05T19:54:04.724Z,14.00
2022-11-05T19:56:34.381Z,14.08
2022-11-05T19:59:06.790Z,14.07
2022-11-05T20:01:35.574Z,13.95
2022-11-05T20:04:04.820Z,13.85
2022-11-05T20:06:37.909Z,13.58
2022-11-05T20:09:24.242Z,13.47
2022-11-05T20:11:56.620Z,13.63
2022-11-05T20:14:25.393Z,13.53
2022-11-05T20:16:53.993Z,13.57
2022-11-05T20:19:22.944Z,13.47
2022-11-05T20:21:51.087Z,13.41
2022-11-05T20:24:24.791Z,13.27
2022-11-05T20:26:55.153Z,13.30
2022-11-05T20:29:23.851Z,13.34
2022-11-05T20:31:53.609Z,13.32
2022-11-05T20:34:21.527Z,13.27
2022-11-05T20:36:49.256Z,13.21
2022-11-05T20:39:17.878Z,13.26
2022-11-05T20:41:45.764Z,13.17
2022-11-05T20:44:13.764Z,13.00
2022-11-05T20:46:42.088Z,13.27
2022-11-05T20:49:10.093Z,13.11
2022-11-05T20:51:38.181Z,13.06
2022-11-05T20:54:06.043Z,13.21
2022-11-05T20:56:37.208Z,13.13
2022-11-05T20:59:05.836Z,13.42
2022-11-05T21:01:35.001Z,13.38
2022-11-05T21:04:04.306Z,13.32
2022-11-05T21:06:33.779Z,13.42
2022-11-05T21:09:02.462Z,13.77
2022-11-05T21:11:50.260Z,13.34
2022-11-05T21:14:18.276Z,13.49
2022-11-05T21:16:46.120Z,13.33
2022-11-05T21:19:15.221Z,13.25
2022-11-05T21:21:43.053Z,13.12
2022-11-05T21:24:11.074Z,13.25
2022-11-05T21:26:39.647Z,13.13
2022-11-05T21:29:07.858Z,13.07
2022-11-05T21:31:37.463Z,13.19
2022-11-05T21:34:05.583Z,13.28
2022-11-05T21:36:34.396Z,13.21
2022-11-05T21:39:02.616Z,13.10
2022-11-05T21:41:30.686Z,13.04
2022-11-05T21:43:58.376Z,13.07
2022-11-05T21:46:26.522Z,12.91
2022-11-05T21:48:54.296Z,12.90
2022-11-05T21:51:40.964Z,12.89
2022-11-05T21:54:31.601Z,13.09
2022-11-05T21:57:17.899Z,13.04
2022-11-05T21:59:48.517Z,13.09
2022-11-05T22:02:22.257Z,13.19
2022-11-05T22:04:53.400Z,13.06
2022-11-05T22:07:24.164Z,12.95
2022-11-05T22:09:52.422Z,12.88
2022-11-05T22:12:20.784Z,12.83
2022-11-05T22:14:48.787Z,12.81
2022-11-05T22:17:16.961Z,12.82
2022-11-05T22:19:45.132Z,12.74
2022-11-05T22:22:13.530Z,12.78
2022-11-05T22:24:42.080Z,12.63
2022-11-05T22:27:18.041Z,12.71
2022-11-05T22:29:46.431Z,12.76
2022-11-05T22:32:14.653Z,12.63
2022-11-05T22:34:42.643Z,12.69
2022-11-05T22:37:13.014Z,12.63
2022-11-05T22:39:41.009Z,12.45
2022-11-05T22:42:09.078Z,12.46
2022-11-05T22:44:37.013Z,12.42
2022-11-05T22:47:05.592Z,12.48
2022-11-05T22:49:34.184Z,12.43
2022-11-05T22:52:02.309Z,12.40
2022-11-05T22:54:33.859Z,12.52
2022-11-05T22:57:04.246Z,12.48
2022-11-05T22:59:32.642Z,12.39
2022-11-05T23:02:05.138Z,12.29
2022-11-05T23:04:36.192Z,12.26
2022-11-05T23:07:27.343Z,12.43
2022-11-05T23:10:14.314Z,12.43
2022-11-05T23:12:44.527Z,12.43
2022-11-05T23:15:33.076Z,12.87
2022-11-05T23:18:19.253Z,12.77
2022-11-05T23:21:05.570Z,13.11
2022-11-05T23:23:51.609Z,13.31
2022-11-05T23:26:38.041Z,13.29
2022-11-05T23:29:05.767Z,13.20
2022-11-05T23:31:52.180Z,13.11
2022-11-05T23:34:19.874Z,13.05
2022-11-05T23:37:06.340Z,12.65
2022-11-05T23:39:41.262Z,12.49
2022-11-05T23:42:29.003Z,12.75
2022-11-05T23:45:15.524Z,12.47
2022-11-05T23:48:02.269Z,12.88
2022-11-05T23:50:34.399Z,12.75
2022-11-05T23:53:07.647Z,12.85
2022-11-05T23:55:35.216Z,12.80
2022-11-05T23:58:03.135Z,12.66
